Time;durP1;ratioP1;P1;durP2;ratioP2;P2;SDS_P1;SDS_P2;PMS_P1;PMS_P2;Temp;Humidity;BMP_temperature;BMP_pressure;BME280_temperature;BME280_humidity;BME280_pressure;Samples;Min_cycle;Max_cycle;Signal;HPM_P1;HPM_P2
2021/12/29 00:00:23;;;;;;;81.60;32.63;;;;;;;-9.05;73.01;100596.41;4872168;29;20022;-57
2021/12/29 00:02:49;;;;;;;72.68;30.92;;;;;;;-8.70;73.72;100660.78;4871878;29;20056;-56
2021/12/29 00:05:15;;;;;;;64.60;30.25;;;;;;;-8.64;74.65;100667.91;4872130;29;20101;-56
2021/12/29 00:07:41;;;;;;;84.18;32.22;;;;;;;-8.61;73.71;100673.13;4872173;29;20059;-57
2021/12/29 00:10:08;;;;;;;68.60;29.75;;;;;;;-8.65;73.78;100672.03;4872013;29;20318;-57
2021/12/29 00:12:40;;;;;;;78.32;33.20;;;;;;;-8.70;72.68;100660.78;4871773;29;20025;-56
2021/12/29 00:15:07;;;;;;;90.43;37.35;;;;;;;-8.66;74.09;100665.28;4870956;29;20029;-56
2021/12/29 00:17:33;;;;;;;108.28;42.03;;;;;;;-8.68;74.95;100681.84;4871963;29;20033;-57
2021/12/29 00:19:59;;;;;;;116.82;41.95;;;;;;;-8.78;75.06;100664.38;4871887;29;20255;-57
2021/12/29 00:22:24;;;;;;;116.35;43.50;;;;;;;-8.80;76.11;100668.44;4871767;29;20100;-57
2021/12/29 00:24:50;;;;;;;96.93;36.53;;;;;;;-8.71;75.67;100667.44;4871643;29;20033;-57
2021/12/29 00:27:15;;;;;;;118.18;41.17;;;;;;;-8.79;74.29;100650.97;4854912;29;20025;-57
2021/12/29 00:29:41;;;;;;;123.43;41.65;;;;;;;-8.77;74.64;100653.59;4871573;29;20124;-57
2021/12/29 00:32:07;;;;;;;121.20;43.22;;;;;;;-8.99;74.20;100669.63;4871528;29;20036;-56
2021/12/29 00:34:32;;;;;;;115.90;43.15;;;;;;;-8.95;75.94;100664.06;4870449;29;20128;-56
2021/12/29 00:36:58;;;;;;;115.60;42.65;;;;;;;-9.13;75.94;100661.09;4870509;29;20363;-57
2021/12/29 00:39:23;;;;;;;102.15;39.38;;;;;;;-9.00;74.65;100659.47;4871694;29;20026;-57
2021/12/29 00:41:49;;;;;;;108.30;40.30;;;;;;;-9.00;74.74;100672.03;4854818;29;20050;-57
2021/12/29 00:44:15;;;;;;;106.97;41.30;;;;;;;-8.96;74.53;100658.91;4871405;29;20090;-57
2021/12/29 00:46:41;;;;;;;105.03;38.45;;;;;;;-9.01;73.14;100656.06;4870453;29;20033;-56
2021/12/29 00:49:08;;;;;;;119.10;41.35;;;;;;;-8.98;73.75;100671.34;4871341;29;20165;-56
2021/12/29 00:51:35;;;;;;;113.88;40.70;;;;;;;-8.98;73.27;100668.84;4854508;29;20092;-56
2021/12/29 00:54:01;;;;;;;115.55;43.10;;;;;;;-9.06;74.26;100670.81;4871355;29;20036;-56
2021/12/29 00:56:26;;;;;;;109.45;41.00;;;;;;;-9.16;73.99;100659.97;4871256;29;20057;-56
2021/12/29 00:58:52;;;;;;;109.60;41.97;;;;;;;-9.15;74.00;100672.63;4871070;29;20250;-57
2021/12/29 01:01:18;;;;;;;119.65;39.95;;;;;;;-9.28;72.33;100668.34;4869813;29;20026;-57
2021/12/29 01:03:44;;;;;;;105.50;39.33;;;;;;;-9.18;73.00;100672.41;4870120;29;20061;-56
2021/12/29 01:06:10;;;;;;;90.22;35.90;;;;;;;-9.33;73.18;100669.66;4870126;29;20069;-56
2021/12/29 01:08:36;;;;;;;90.85;35.67;;;;;;;-9.43;73.54;100669.75;4854832;29;20025;-57
2021/12/29 01:11:04;;;;;;;73.22;33.28;;;;;;;-9.42;73.92;100656.41;4870868;29;20025;-57
2021/12/29 01:13:32;;;;;;;80.30;31.73;;;;;;;-9.52;74.91;100674.06;4869863;29;20279;-58
2021/12/29 01:18:31;;;;;;;79.30;30.33;;;;;;;-9.77;73.91;100680.59;4870994;29;20037;-57
2021/12/29 01:20:57;;;;;;;70.95;29.95;;;;;;;-9.82;75.72;100686.88;4870770;29;20037;-57
2021/12/29 01:23:24;;;;;;;69.40;29.05;;;;;;;-10.08;76.70;100677.38;4870747;29;20065;-57
2021/12/29 01:25:49;;;;;;;63.97;28.38;;;;;;;-10.12;76.66;100675.41;4870454;29;20021;-57
2021/12/29 01:28:15;;;;;;;72.47;29.48;;;;;;;-10.08;77.42;100678.25;4869391;29;20028;-57
2021/12/29 01:30:43;;;;;;;63.40;27.55;;;;;;;-10.20;77.76;100677.31;4870492;29;20021;-56
2021/12/29 01:33:09;;;;;;;59.55;24.70;;;;;;;-10.35;76.95;100674.50;4870419;29;20104;-57
2021/12/29 01:35:37;;;;;;;57.63;24.40;;;;;;;-10.15;78.57;100672.66;4868627;29;20045;-58
2021/12/29 01:38:04;;;;;;;51.03;22.85;;;;;;;-10.02;77.24;100666.97;4869574;29;20032;-57
2021/12/29 01:40:31;;;;;;;48.53;21.92;;;;;;;-10.07;78.03;100686.66;4870247;29;20112;-58
2021/12/29 01:42:57;;;;;;;49.70;21.65;;;;;;;-10.18;77.63;100683.31;4854915;29;20037;-56
2021/12/29 01:45:23;;;;;;;55.55;22.23;;;;;;;-10.50;79.08;100674.22;4870521;29;20032;-57
2021/12/29 01:47:49;;;;;;;50.67;21.35;;;;;;;-10.34;78.08;100670.41;4864556;29;20049;-56
2021/12/29 01:50:16;;;;;;;48.78;23.35;;;;;;;-10.17;77.27;100676.69;4860063;29;20051;-57
2021/12/29 01:52:42;;;;;;;45.83;21.08;;;;;;;-10.42;77.42;100682.31;4870217;29;20105;-56
2021/12/29 01:55:12;;;;;;;45.92;22.42;;;;;;;-10.54;76.56;100656.34;4869421;29;20066;-56
2021/12/29 01:57:39;;;;;;;51.35;22.48;;;;;;;-10.40;77.65;100678.31;4854641;29;20036;-56
2021/12/29 02:00:09;;;;;;;46.65;20.33;;;;;;;-11.04;76.99;100607.44;4870212;29;20326;-57
2021/12/29 02:02:34;;;;;;;44.60;20.50;;;;;;;-10.62;77.08;100655.72;4869519;29;20082;-56
2021/12/29 02:05:00;;;;;;;49.28;21.95;;;;;;;-10.38;77.28;100676.78;4870172;29;20030;-57
2021/12/29 02:07:26;;;;;;;46.53;19.98;;;;;;;-10.51;78.88;100676.59;4851663;29;20340;-56
2021/12/29 02:09:52;;;;;;;48.08;20.60;;;;;;;-10.32;77.42;100659.69;4865035;29;20026;-57
2021/12/29 02:12:17;;;;;;;44.97;20.15;;;;;;;-10.01;77.78;100676.22;4862949;29;20030;-57
2021/12/29 02:14:43;;;;;;;46.10;20.05;;;;;;;-9.99;77.49;100665.56;4858551;29;20251;-57
2021/12/29 02:17:09;;;;;;;44.38;19.75;;;;;;;-9.84;76.79;100680.03;4861934;29;20033;-57
2021/12/29 02:19:42;;;;;;;42.67;19.83;;;;;;;-10.03;76.59;100668.59;4873924;29;20025;-57
2021/12/29 02:22:14;;;;;;;43.33;18.48;;;;;;;-10.12;76.26;100677.91;4872923;29;20030;-57
2021/12/29 02:24:43;;;;;;;41.13;18.77;;;;;;;-9.99;77.34;100678.09;4872846;29;20029;-56
2021/12/29 02:27:11;;;;;;;43.83;19.13;;;;;;;-10.23;77.64;100685.47;4873849;29;20033;-56
2021/12/29 02:29:40;;;;;;;41.80;17.65;;;;;;;-10.41;77.32;100682.41;4873398;29;20272;-56
2021/12/29 02:32:06;;;;;;;39.47;17.48;;;;;;;-10.66;78.44;100696.25;4854888;29;20037;-57
2021/12/29 02:34:33;;;;;;;38.30;18.98;;;;;;;-10.87;80.11;100687.91;4871143;29;20029;-57
2021/12/29 02:37:02;;;;;;;42.05;17.95;;;;;;;-10.80;80.49;100687.66;4873597;29;20047;-57
2021/12/29 02:39:30;;;;;;;44.45;19.45;;;;;;;-10.99;81.54;100687.81;4873681;29;20030;-57
2021/12/29 02:41:56;;;;;;;47.88;20.92;;;;;;;-10.83;80.67;100685.81;4872205;29;20120;-57
2021/12/29 02:44:29;;;;;;;45.72;20.23;;;;;;;-11.21;81.38;100618.56;4873623;29;20029;-57
2021/12/29 02:46:57;;;;;;;44.03;20.10;;;;;;;-10.78;81.45;100703.66;4872600;29;20198;-57
2021/12/29 02:49:24;;;;;;;44.78;19.88;;;;;;;-10.71;81.62;100683.38;4873447;29;20223;-57
2021/12/29 02:51:50;;;;;;;45.65;18.27;;;;;;;-10.83;81.00;100678.28;4872230;29;20025;-57
2021/12/29 02:54:17;;;;;;;47.92;20.92;;;;;;;-10.66;80.25;100682.13;4857398;29;20034;-57
2021/12/29 02:56:47;;;;;;;46.58;19.73;;;;;;;-10.74;80.46;100628.13;4873405;29;20029;-57
2021/12/29 02:59:12;;;;;;;47.58;20.55;;;;;;;-10.33;79.61;100678.00;4873392;29;20101;-57
2021/12/29 03:01:38;;;;;;;55.20;21.27;;;;;;;-10.47;78.82;100679.44;4873037;29;20256;-57
2021/12/29 03:04:06;;;;;;;47.67;20.85;;;;;;;-10.63;81.21;100673.97;4857470;29;20041;-57
2021/12/29 03:06:32;;;;;;;49.22;19.83;;;;;;;-10.37;79.05;100678.53;4873197;29;20029;-57
2021/12/29 03:08:57;;;;;;;50.92;20.05;;;;;;;-10.47;81.59;100668.56;4857545;29;20033;-56
2021/12/29 03:11:23;;;;;;;46.95;20.05;;;;;;;-10.77;80.69;100627.88;4841840;29;20021;-57
2021/12/29 03:13:49;;;;;;;45.40;20.23;;;;;;;-10.35;79.42;100674.50;4872046;29;20096;-56
2021/12/29 03:16:15;;;;;;;49.20;21.70;;;;;;;-10.17;79.68;100670.03;4871810;29;20021;-56
2021/12/29 03:18:42;;;;;;;53.60;20.95;;;;;;;-10.41;77.60;100667.41;4872915;29;20036;-56
2021/12/29 03:21:08;;;;;;;54.50;21.20;;;;;;;-10.66;79.41;100669.63;4872802;29;20029;-57
2021/12/29 03:23:34;;;;;;;52.22;20.65;;;;;;;-10.88;79.73;100661.16;4871785;29;20230;-57
2021/12/29 03:26:01;;;;;;;56.30;23.77;;;;;;;-10.62;80.22;100663.22;4870394;29;20025;-56
2021/12/29 03:28:27;;;;;;;55.90;23.02;;;;;;;-10.59;78.74;100648.44;4872736;29;20030;-57
2021/12/29 03:30:55;;;;;;;53.40;22.00;;;;;;;-10.94;77.92;100586.53;4872466;29;20039;-57
2021/12/29 03:33:23;;;;;;;53.17;22.77;;;;;;;-10.55;78.59;100664.59;4872096;29;20034;-57
2021/12/29 03:35:55;;;;;;;50.25;21.70;;;;;;;-11.18;77.99;100602.97;4872299;29;20025;-57
2021/12/29 03:38:25;;;;;;;56.95;21.48;;;;;;;-10.69;77.08;100666.84;4871306;29;20067;-57
2021/12/29 03:40:52;;;;;;;49.70;21.92;;;;;;;-10.67;76.66;100655.38;4871103;29;20335;-56
2021/12/29 03:43:18;;;;;;;50.30;23.75;;;;;;;-10.58;76.55;100657.72;4872375;29;20301;-56
2021/12/29 03:45:45;;;;;;;49.08;21.88;;;;;;;-10.65;76.54;100640.47;4885370;29;20057;-56
2021/12/29 03:48:14;;;;;;;48.72;20.65;;;;;;;-11.14;75.92;100578.31;4870940;29;20037;-56
2021/12/29 03:50:40;;;;;;;46.25;19.98;;;;;;;-11.04;76.60;100629.94;4872046;29;20029;-56
2021/12/29 03:53:07;;;;;;;47.85;21.60;;;;;;;-10.97;76.76;100639.66;4870002;29;20038;-55
2021/12/29 03:55:33;;;;;;;48.47;20.25;;;;;;;-10.94;76.67;100651.56;4856264;29;20109;-56
2021/12/29 03:57:59;;;;;;;48.80;20.85;;;;;;;-11.01;76.93;100654.31;4870693;29;20041;-57
2021/12/29 04:00:24;;;;;;;52.28;22.17;;;;;;;-10.89;77.33;100646.91;4865825;29;20354;-57
2021/12/29 04:02:50;;;;;;;46.30;21.23;;;;;;;-11.08;77.20;100655.44;4856356;29;20143;-57
2021/12/29 04:05:21;;;;;;;49.10;19.77;;;;;;;-11.26;76.70;100569.81;4871949;29;20150;-56
2021/12/29 04:07:47;;;;;;;47.80;20.73;;;;;;;-10.98;78.45;100649.56;4869892;29;20063;-57
2021/12/29 04:10:13;;;;;;;50.58;22.00;;;;;;;-10.92;77.09;100650.03;4871070;29;20044;-57
2021/12/29 04:12:40;;;;;;;48.58;21.58;;;;;;;-10.87;76.52;100646.28;4871500;29;20029;-57
2021/12/29 04:15:07;;;;;;;43.17;21.33;;;;;;;-11.22;74.94;100669.31;4871402;29;20029;-55
2021/12/29 04:17:39;;;;;;;43.88;20.85;;;;;;;-11.06;75.82;100663.91;4871642;29;20079;-56
2021/12/29 04:22:49;;;;;;;46.53;20.02;;;;;;;-11.74;75.94;100665.94;4871228;29;20045;-57
2021/12/29 04:25:15;;;;;;;41.00;20.85;;;;;;;-11.77;76.40;100659.78;4870990;29;20029;-56
2021/12/29 04:27:40;;;;;;;48.70;22.88;;;;;;;-11.56;75.78;100648.19;4871044;29;20032;-56
2021/12/29 04:30:06;;;;;;;46.05;21.45;;;;;;;-11.55;75.18;100654.97;4855315;29;20056;-57
2021/12/29 04:32:32;;;;;;;50.17;22.77;;;;;;;-11.46;75.25;100653.19;4870864;29;20385;-56
2021/12/29 04:34:57;;;;;;;57.30;24.95;;;;;;;-11.34;75.60;100654.22;4851826;29;20026;-56
2021/12/29 04:37:23;;;;;;;53.17;24.02;;;;;;;-11.41;74.94;100651.97;4857423;29;20044;-56
2021/12/29 04:39:49;;;;;;;54.20;23.73;;;;;;;-11.66;74.71;100637.44;4884328;29;20041;-57
2021/12/29 04:42:15;;;;;;;51.25;22.70;;;;;;;-11.56;75.17;100645.69;4871055;29;20060;-57
2021/12/29 04:44:40;;;;;;;47.17;22.77;;;;;;;-11.66;74.27;100646.56;4859147;29;20046;-56
2021/12/29 04:47:07;;;;;;;54.92;23.92;;;;;;;-11.48;73.90;100648.06;4870684;29;20037;-56
2021/12/29 04:49:40;;;;;;;42.83;22.10;;;;;;;-11.70;73.71;100655.44;4870750;29;20045;-56
2021/12/29 04:52:07;;;;;;;53.67;23.15;;;;;;;-12.01;74.97;100647.91;4858065;29;20033;-56
2021/12/29 04:54:33;;;;;;;45.35;22.73;;;;;;;-11.71;74.95;100653.69;4870602;29;20037;-57
2021/12/29 04:57:00;;;;;;;48.22;22.73;;;;;;;-11.55;74.03;100654.97;4870646;29;20033;-56
2021/12/29 04:59:28;;;;;;;44.28;19.73;;;;;;;-11.91;75.50;100626.16;4865439;29;20034;-56
2021/12/29 05:01:54;;;;;;;51.33;22.38;;;;;;;-11.68;75.13;100645.56;4859393;29;20040;-57
2021/12/29 05:04:22;;;;;;;52.60;22.27;;;;;;;-11.91;76.23;100622.06;4855953;29;20025;-57
2021/12/29 05:09:34;;;;;;;43.80;20.75;;;;;;;-12.07;76.50;100641.53;4855329;29;20210;-56
2021/12/29 05:12:01;;;;;;;39.53;18.85;;;;;;;-12.23;76.38;100651.84;4870294;29;20033;-56
2021/12/29 05:14:28;;;;;;;43.95;20.70;;;;;;;-11.95;76.46;100641.66;4870647;29;20037;-57
2021/12/29 05:16:54;;;;;;;42.88;21.17;;;;;;;-11.93;76.61;100645.19;4870139;29;20081;-56
2021/12/29 05:19:20;;;;;;;47.22;20.77;;;;;;;-11.84;75.86;100651.78;4870159;29;20244;-56
2021/12/29 05:21:45;;;;;;;53.10;22.05;;;;;;;-11.76;76.14;100644.06;4859486;29;20054;-57
2021/12/29 05:24:11;;;;;;;50.45;21.35;;;;;;;-11.77;74.57;100648.19;4863468;29;20073;-57
2021/12/29 05:26:38;;;;;;;51.58;21.63;;;;;;;-11.81;74.95;100647.03;4868977;29;20037;-56
2021/12/29 05:29:04;;;;;;;51.80;20.98;;;;;;;-11.91;75.33;100643.66;4868716;29;20360;-57
2021/12/29 05:31:30;;;;;;;51.35;22.63;;;;;;;-11.94;75.95;100644.31;4854303;29;20130;-55
2021/12/29 05:33:55;;;;;;;49.17;23.33;;;;;;;-11.99;74.81;100641.41;4869516;29;20041;-57
2021/12/29 05:36:21;;;;;;;46.63;21.10;;;;;;;-11.90;74.51;100630.41;4869627;29;20057;-56
2021/12/29 05:38:47;;;;;;;43.83;21.52;;;;;;;-11.81;74.17;100648.69;4853856;29;20363;-56
2021/12/29 05:41:13;;;;;;;47.65;21.25;;;;;;;-11.89;74.92;100640.53;4869710;29;20046;-56
2021/12/29 05:43:38;;;;;;;51.25;22.40;;;;;;;-11.98;74.82;100634.81;4869748;29;20040;-57
2021/12/29 05:46:04;;;;;;;46.78;20.92;;;;;;;-12.11;74.91;100634.53;4869721;29;20078;-57
2021/12/29 05:48:30;;;;;;;57.10;24.10;;;;;;;-12.04;74.95;100637.69;4869141;29;20033;-57
2021/12/29 05:50:56;;;;;;;59.50;24.10;;;;;;;-11.84;75.93;100645.91;4854087;29;20104;-56
2021/12/29 05:53:21;;;;;;;59.63;24.25;;;;;;;-11.66;74.86;100642.44;4868148;29;20134;-57
2021/12/29 05:55:47;;;;;;;52.63;22.95;;;;;;;-12.16;74.96;100656.59;4869465;29;20074;-56
2021/12/29 05:58:13;;;;;;;69.63;27.73;;;;;;;-11.84;75.28;100651.78;4868337;29;20025;-57
2021/12/29 06:00:40;;;;;;;60.35;25.33;;;;;;;-12.00;76.17;100581.38;4870221;29;20030;-57
2021/12/29 06:03:06;;;;;;;59.53;26.30;;;;;;;-11.62;75.25;100659.44;4869864;29;20061;-57
2021/12/29 06:05:32;;;;;;;67.93;29.52;;;;;;;-11.81;75.45;100653.69;4868577;29;20096;-56
2021/12/29 06:07:58;;;;;;;64.45;28.33;;;;;;;-11.55;75.41;100662.44;4867804;29;20120;-56
2021/12/29 06:10:24;;;;;;;59.80;26.85;;;;;;;-11.75;75.59;100656.66;4868611;29;20585;-56
2021/12/29 06:12:49;;;;;;;61.00;26.52;;;;;;;-11.84;75.80;100639.31;4850845;29;20327;-56
2021/12/29 06:15:15;;;;;;;59.25;25.75;;;;;;;-11.74;75.36;100643.44;4864340;29;20033;-56
2021/12/29 06:17:41;;;;;;;63.95;27.85;;;;;;;-11.65;74.66;100655.81;4869525;29;20076;-57
2021/12/29 06:20:10;;;;;;;69.28;28.75;;;;;;;-12.07;75.86;100597.50;4853090;29;20135;-57
2021/12/29 06:22:36;;;;;;;64.65;27.92;;;;;;;-11.93;75.05;100642.69;4869480;29;20254;-56
2021/12/29 06:25:04;;;;;;;59.55;26.48;;;;;;;-11.58;76.15;100669.69;4868093;29;20048;-57
2021/12/29 06:27:31;;;;;;;64.15;26.65;;;;;;;-11.84;75.91;100661.78;4869653;29;20188;-57
2021/12/29 06:29:57;;;;;;;66.28;29.45;;;;;;;-11.57;75.56;100668.94;4869533;29;20096;-57
2021/12/29 06:32:23;;;;;;;67.82;27.35;;;;;;;-11.55;75.16;100664.94;4853810;29;20041;-57
2021/12/29 06:34:49;;;;;;;66.80;26.95;;;;;;;-11.60;77.08;100657.06;4868330;29;20096;-57
2021/12/29 06:37:15;;;;;;;69.10;27.33;;;;;;;-11.57;76.93;100651.44;4869365;29;20037;-56
2021/12/29 06:39:43;;;;;;;66.82;27.85;;;;;;;-11.82;76.60;100644.44;4869671;29;20061;-55
2021/12/29 06:42:09;;;;;;;61.85;26.85;;;;;;;-11.90;77.12;100656.25;4868647;29;20048;-56
2021/12/29 06:44:35;;;;;;;68.13;26.50;;;;;;;-11.91;77.35;100668.63;4860723;29;20322;-56
2021/12/29 06:47:01;;;;;;;71.70;27.88;;;;;;;-11.88;78.42;100662.28;4861740;29;20221;-56
2021/12/29 06:49:27;;;;;;;61.17;26.80;;;;;;;-11.88;77.21;100658.91;4850824;29;20037;-57
2021/12/29 06:51:52;;;;;;;66.70;28.23;;;;;;;-11.72;77.42;100656.91;4862521;29;20034;-56
2021/12/29 06:54:18;;;;;;;64.22;27.38;;;;;;;-11.72;76.43;100661.06;4866556;29;20104;-56
2021/12/29 06:56:43;;;;;;;68.93;28.20;;;;;;;-11.63;76.93;100660.19;4869211;29;20037;-56
2021/12/29 06:59:09;;;;;;;63.90;27.60;;;;;;;-11.37;76.84;100656.47;4854679;29;20030;-56
2021/12/29 07:01:34;;;;;;;56.40;25.20;;;;;;;-11.71;75.94;100648.69;4871695;29;20330;-57
2021/12/29 07:04:00;;;;;;;66.90;27.00;;;;;;;-11.80;76.76;100650.41;4871641;29;20393;-57
2021/12/29 07:06:26;;;;;;;65.40;26.17;;;;;;;-11.66;77.26;100666.53;4871816;29;20220;-57
2021/12/29 07:08:52;;;;;;;63.20;25.70;;;;;;;-11.72;76.59;100651.94;4872189;29;20048;-57
2021/12/29 07:11:17;;;;;;;64.22;27.35;;;;;;;-11.79;76.78;100654.66;4869536;29;20351;-57
2021/12/29 07:13:44;;;;;;;60.63;26.75;;;;;;;-11.42;76.63;100667.69;4871010;29;20069;-57
2021/12/29 07:16:11;;;;;;;69.03;29.45;;;;;;;-11.48;76.49;100660.56;4872507;29;20029;-57
2021/12/29 07:18:36;;;;;;;59.80;27.73;;;;;;;-11.33;76.53;100660.97;4871214;29;20034;-56
2021/12/29 07:21:03;;;;;;;64.13;27.50;;;;;;;-11.15;75.80;100651.56;4853842;29;20053;-57
2021/12/29 07:23:28;;;;;;;63.95;27.52;;;;;;;-11.03;74.20;100645.78;4870302;29;20231;-56
2021/12/29 07:25:54;;;;;;;58.95;27.38;;;;;;;-11.03;73.99;100658.31;4872208;29;20045;-57
2021/12/29 07:28:20;;;;;;;60.20;28.02;;;;;;;-11.04;73.62;100644.94;4870397;29;20329;-56
2021/12/29 07:30:45;;;;;;;57.30;25.98;;;;;;;-10.92;75.45;100647.53;4871973;29;20029;-55
2021/12/29 07:33:11;;;;;;;66.93;27.80;;;;;;;-11.34;75.80;100655.81;4871832;29;20072;-57
2021/12/29 07:35:36;;;;;;;59.92;27.00;;;;;;;-11.02;75.62;100643.41;4871991;29;20037;-56
2021/12/29 07:38:02;;;;;;;58.60;26.10;;;;;;;-11.01;75.75;100651.81;4872087;29;20033;-57
2021/12/29 07:40:28;;;;;;;61.45;28.13;;;;;;;-11.13;74.48;100652.56;4871797;29;20096;-56
2021/12/29 07:42:53;;;;;;;55.78;25.02;;;;;;;-10.88;75.65;100648.66;4869681;29;20337;-56
2021/12/29 07:45:19;;;;;;;63.70;25.30;;;;;;;-10.68;73.96;100643.59;4870877;29;20041;-57
2021/12/29 07:47:49;;;;;;;59.20;24.50;;;;;;;-10.67;73.52;100625.34;4870741;29;20041;-57
2021/12/29 07:50:16;;;;;;;64.07;25.60;;;;;;;-10.73;74.12;100628.97;4870876;29;20056;-58
2021/12/29 07:52:43;;;;;;;62.15;25.20;;;;;;;-10.74;74.93;100633.13;4871719;29;20029;-57
2021/12/29 07:55:09;;;;;;;60.38;25.08;;;;;;;-10.61;74.48;100623.31;4871854;29;20041;-56
2021/12/29 07:57:35;;;;;;;61.28;26.83;;;;;;;-10.50;73.63;100635.78;4871492;29;20064;-57
2021/12/29 08:00:00;;;;;;;61.42;27.05;;;;;;;-10.46;74.48;100632.75;4856030;29;20226;-57
2021/12/29 08:02:27;;;;;;;61.85;25.63;;;;;;;-10.48;74.39;100631.78;4871443;29;20585;-56
2021/12/29 08:04:54;;;;;;;58.25;23.33;;;;;;;-10.90;73.05;100622.63;4871645;29;20112;-57
2021/12/29 08:07:21;;;;;;;61.63;26.00;;;;;;;-11.04;74.47;100637.44;4870205;29;20105;-56
2021/12/29 08:09:47;;;;;;;60.92;25.00;;;;;;;-11.05;74.63;100629.81;4870334;29;20042;-56
2021/12/29 08:12:12;;;;;;;63.70;26.85;;;;;;;-10.93;73.48;100618.25;4870467;29;20029;-57
2021/12/29 08:14:38;;;;;;;66.47;28.58;;;;;;;-10.89;74.63;100624.41;4870442;29;20033;-57
2021/12/29 08:17:03;;;;;;;59.15;26.52;;;;;;;-10.81;74.95;100620.88;4871169;29;20025;-56
2021/12/29 08:19:29;;;;;;;60.03;26.40;;;;;;;-10.95;73.62;100603.13;4871150;29;20058;-56
2021/12/29 08:21:55;;;;;;;63.55;27.98;;;;;;;-10.56;73.18;100608.63;4870046;29;20033;-56
2021/12/29 08:24:20;;;;;;;62.25;28.05;;;;;;;-10.44;73.27;100608.72;4871128;29;20029;-56
2021/12/29 08:26:46;;;;;;;64.35;29.73;;;;;;;-10.35;71.85;100611.06;4870998;29;20029;-56
2021/12/29 08:29:11;;;;;;;65.82;28.23;;;;;;;-10.60;72.56;100597.53;4871012;29;20070;-57
2021/12/29 08:31:37;;;;;;;66.05;27.80;;;;;;;-10.80;74.33;100595.97;4870877;29;20057;-57
2021/12/29 08:34:03;;;;;;;67.95;28.40;;;;;;;-10.94;73.32;100594.03;4868487;29;20322;-58
2021/12/29 08:36:28;;;;;;;60.13;26.60;;;;;;;-11.04;74.71;100589.03;4870542;29;20029;-58
2021/12/29 08:38:54;;;;;;;58.13;26.15;;;;;;;-11.04;73.95;100581.53;4871167;29;20058;-57
2021/12/29 08:41:20;;;;;;;52.78;25.02;;;;;;;-10.89;72.75;100590.25;4870498;29;20085;-57
2021/12/29 08:43:47;;;;;;;64.63;26.75;;;;;;;-10.69;74.94;100596.81;4867430;29;20314;-58
2021/12/29 08:46:15;;;;;;;61.85;27.20;;;;;;;-10.39;74.06;100596.56;4870559;29;20341;-57
2021/12/29 08:48:42;;;;;;;61.78;27.52;;;;;;;-10.42;72.65;100579.69;4870230;29;20080;-57
2021/12/29 08:51:08;;;;;;;63.75;27.67;;;;;;;-10.13;74.05;100583.47;4870634;29;20044;-57
2021/12/29 08:53:36;;;;;;;62.58;28.05;;;;;;;-10.41;72.01;100588.94;4870010;29;20029;-58
2021/12/29 08:56:02;;;;;;;63.42;28.50;;;;;;;-10.15;72.52;100587.50;4870510;29;20398;-56
2021/12/29 08:58:28;;;;;;;62.38;26.30;;;;;;;-10.41;73.49;100584.78;4870332;29;20041;-57
2021/12/29 09:00:56;;;;;;;57.08;25.17;;;;;;;-10.56;72.39;100567.72;4870081;29;20029;-56
2021/12/29 09:03:22;;;;;;;59.33;25.27;;;;;;;-10.72;72.52;100576.56;4862640;29;20033;-57
2021/12/29 09:05:48;;;;;;;60.08;26.35;;;;;;;-10.51;73.49;100571.47;4869157;29;20318;-56
2021/12/29 09:08:14;;;;;;;63.80;27.48;;;;;;;-9.99;72.20;100572.91;4870325;29;20323;-57
2021/12/29 09:10:40;;;;;;;62.33;24.88;;;;;;;-10.30;72.73;100560.56;4870308;29;20044;-59
2021/12/29 09:13:06;;;;;;;64.80;27.05;;;;;;;-10.33;71.76;100569.44;4869821;29;20101;-56
2021/12/29 09:15:32;;;;;;;63.58;26.60;;;;;;;-10.18;73.36;100562.25;4869789;29;20032;-56
2021/12/29 09:17:59;;;;;;;70.95;26.67;;;;;;;-10.06;70.93;100561.53;4870101;29;20076;-58
2021/12/29 09:20:29;;;;;;;63.22;27.27;;;;;;;-9.89;70.25;100557.78;4854083;29;20097;-57
2021/12/29 09:23:06;;;;;;;63.78;27.80;;;;;;;-9.26;69.63;100574.03;4869473;29;20040;-57
2021/12/29 09:25:33;;;;;;;67.38;28.35;;;;;;;-10.17;70.82;100569.88;4866041;29;20039;-57
2021/12/29 09:28:00;;;;;;;65.93;29.50;;;;;;;-10.10;68.30;100566.22;4861444;29;20092;-56
2021/12/29 09:30:29;;;;;;;74.50;27.15;;;;;;;-10.89;70.01;100504.34;4853619;29;20112;-58
2021/12/29 09:32:55;;;;;;;68.75;28.80;;;;;;;-10.80;69.89;100560.06;4869128;29;20077;-59
2021/12/29 09:35:22;;;;;;;67.20;28.33;;;;;;;-11.22;70.79;100553.47;4869982;29;20040;-57
2021/12/29 09:37:50;;;;;;;66.93;27.02;;;;;;;-11.37;72.80;100555.59;4866991;29;20026;-58
2021/12/29 09:40:17;;;;;;;68.10;30.80;;;;;;;-11.09;71.71;100552.81;4863573;29;20337;-57
2021/12/29 09:42:44;;;;;;;69.40;28.95;;;;;;;-11.32;73.38;100544.34;4861942;29;20058;-58
2021/12/29 09:45:10;;;;;;;74.80;29.33;;;;;;;-11.11;72.03;100543.53;4857271;29;20025;-59
2021/12/29 09:47:37;;;;;;;77.90;30.83;;;;;;;-10.82;70.89;100546.59;4869621;29;20061;-58
2021/12/29 09:50:07;;;;;;;70.05;25.83;;;;;;;-11.48;70.58;100512.28;4869672;29;20037;-58
2021/12/29 09:52:33;;;;;;;72.03;29.83;;;;;;;-10.83;72.53;100548.22;4868606;29;20061;-58
2021/12/29 09:55:09;;;;;;;68.75;29.05;;;;;;;-10.93;71.40;100544.13;4869406;29;20061;-58
2021/12/29 09:57:37;;;;;;;76.40;27.20;;;;;;;-11.58;72.10;100465.69;4869007;29;20037;-59
2021/12/29 10:00:07;;;;;;;74.53;29.20;;;;;;;-11.03;72.59;100550.78;4864992;29;20097;-60
2021/12/29 10:02:33;;;;;;;76.80;30.88;;;;;;;-11.07;71.65;100524.66;4865108;29;20314;-59
2021/12/29 10:04:59;;;;;;;80.10;30.80;;;;;;;-10.80;72.43;100522.53;4852442;29;20081;-58
2021/12/29 10:07:26;;;;;;;76.53;30.65;;;;;;;-11.18;72.86;100536.31;4866025;29;20233;-59
2021/12/29 10:09:52;;;;;;;84.07;30.40;;;;;;;-11.16;71.32;100526.44;4864579;29;20022;-58
2021/12/29 10:12:21;;;;;;;83.13;30.98;;;;;;;-11.19;73.40;100527.06;4859265;29;20278;-58
2021/12/29 10:14:51;;;;;;;82.43;29.70;;;;;;;-10.97;72.56;100522.13;4860048;29;20035;-57
2021/12/29 10:17:17;;;;;;;82.78;31.70;;;;;;;-11.05;72.55;100505.66;4860277;29;20034;-58
2021/12/29 10:19:44;;;;;;;84.55;30.13;;;;;;;-11.01;73.77;100501.78;4861464;29;20337;-57
2021/12/29 10:22:21;;;;;;;80.72;31.17;;;;;;;-11.17;73.94;100508.06;4869524;29;20037;-57
2021/12/29 10:24:48;;;;;;;78.88;30.52;;;;;;;-11.03;73.69;100510.75;4869610;29;20387;-57
2021/12/29 10:27:19;;;;;;;73.90;29.25;;;;;;;-11.09;72.48;100495.28;4868098;29;20093;-57
2021/12/29 10:29:45;;;;;;;72.65;27.25;;;;;;;-11.68;74.08;100456.59;4868093;29;20025;-59
2021/12/29 10:32:11;;;;;;;75.68;31.15;;;;;;;-11.41;74.03;100499.53;4862224;29;20037;-58
2021/12/29 10:34:36;;;;;;;81.82;30.05;;;;;;;-11.32;73.71;100500.22;4865406;29;20340;-58
2021/12/29 10:37:09;;;;;;;87.40;31.65;;;;;;;-11.16;74.17;100484.81;4868667;29;20037;-56
2021/12/29 10:39:38;;;;;;;75.20;31.55;;;;;;;-11.28;74.30;100411.38;4872653;29;20045;-56
2021/12/29 10:42:09;;;;;;;81.07;31.08;;;;;;;-11.07;73.42;100474.66;4872827;29;20108;-56
2021/12/29 10:44:44;;;;;;;75.13;29.40;;;;;;;-11.25;72.61;100425.75;4865255;29;20053;-59
2021/12/29 10:47:19;;;;;;;71.75;29.50;;;;;;;-10.94;73.23;100487.34;4872058;29;20037;-56
2021/12/29 10:50:03;;;;;;;80.72;30.58;;;;;;;-10.68;73.23;100478.47;4871897;29;20021;-58
2021/12/29 10:52:39;;;;;;;75.22;29.30;;;;;;;-10.85;73.11;100471.31;4867564;29;20034;-58
2021/12/29 10:55:10;;;;;;;72.40;28.75;;;;;;;-10.98;73.88;100455.34;4867284;29;20251;-58
2021/12/29 10:57:36;;;;;;;79.03;30.70;;;;;;;-10.67;72.82;100469.31;4872965;29;20033;-59
2021/12/29 11:00:08;;;;;;;75.28;29.02;;;;;;;-11.64;73.92;100391.16;4867244;29;20322;-55
2021/12/29 11:02:35;;;;;;;79.18;30.60;;;;;;;-10.88;74.37;100453.56;4872683;29;20026;-59
2021/12/29 11:05:06;;;;;;;72.78;28.58;;;;;;;-10.70;74.32;100424.06;4860299;29;20029;-58
2021/12/29 11:07:34;;;;;;;77.55;30.35;;;;;;;-10.77;74.14;100441.13;4867242;29;20071;-58